Time;durP1;ratioP1;P1;durP2;ratioP2;P2;SDS_P1;SDS_P2;PMS_P1;PMS_P2;Temp;Humidity;BMP_temperature;BMP_pressure;BME280_temperature;BME280_humidity;BME280_pressure;Samples;Min_cycle;Max_cycle;Signal;HPM_P1;HPM_P2
2023/05/24 00:00:22;;;;;;;2.60;0.70;;;21.40;67.60;;;;;;5080846;28;20048;-73
2023/05/24 00:02:49;;;;;;;2.72;0.90;;;21.40;67.60;;;;;;5081804;28;20118;-73
2023/05/24 00:05:17;;;;;;;4.00;0.80;;;21.40;67.60;;;;;;5087547;28;20412;-73
2023/05/24 00:07:44;;;;;;;2.65;1.00;;;21.40;67.60;;;;;;5097057;28;20076;-73
2023/05/24 00:10:12;;;;;;;2.55;0.70;;;21.40;67.60;;;;;;5085208;28;20507;-73
2023/05/24 00:12:39;;;;;;;2.00;0.60;;;21.40;67.60;;;;;;5085619;28;20051;-73
2023/05/24 00:15:08;;;;;;;2.45;0.52;;;21.40;67.60;;;;;;5082017;28;20055;-73
2023/05/24 00:17:40;;;;;;;3.42;1.25;;;21.40;67.60;;;;;;5088228;28;20056;-73
2023/05/24 00:20:10;;;;;;;1.42;0.52;;;21.30;67.50;;;;;;5079088;28;20052;-73
2023/05/24 00:22:37;;;;;;;3.10;0.50;;;21.30;67.50;;;;;;5088234;28;20125;-73
2023/05/24 00:25:05;;;;;;;3.85;0.55;;;21.30;67.50;;;;;;5089680;28;20048;-73
2023/05/24 00:27:32;;;;;;;3.22;0.50;;;21.40;67.50;;;;;;5083991;28;20055;-73
2023/05/24 00:29:59;;;;;;;3.78;0.55;;;21.30;67.40;;;;;;5083768;28;20088;-73
2023/05/24 00:32:28;;;;;;;2.70;0.73;;;21.30;67.40;;;;;;5086278;28;20055;-73
2023/05/24 00:34:55;;;;;;;3.78;1.17;;;21.30;67.40;;;;;;5086610;28;20417;-73
2023/05/24 00:37:22;;;;;;;2.88;1.17;;;21.30;67.40;;;;;;5076264;28;20226;-73
2023/05/24 00:39:49;;;;;;;2.35;0.80;;;21.30;67.40;;;;;;5087312;28;20048;-73
2023/05/24 00:42:16;;;;;;;3.70;0.50;;;21.20;67.40;;;;;;5082900;28;20052;-72
2023/05/24 00:44:43;;;;;;;3.38;1.05;;;21.20;67.30;;;;;;5079644;28;20048;-73
2023/05/24 00:47:10;;;;;;;2.70;0.60;;;21.30;67.40;;;;;;5076951;28;20052;-73
2023/05/24 00:49:38;;;;;;;2.35;0.82;;;21.30;67.40;;;;;;5086125;28;20493;-73
2023/05/24 00:52:07;;;;;;;2.63;0.60;;;21.30;67.40;;;;;;5085724;28;20044;-73
2023/05/24 00:54:34;;;;;;;2.97;1.17;;;21.20;67.30;;;;;;5084688;28;20048;-73
2023/05/24 00:57:02;;;;;;;3.78;1.20;;;21.20;67.30;;;;;;5084203;28;20082;-73
2023/05/24 00:59:29;;;;;;;2.05;0.30;;;21.20;67.30;;;;;;5080248;28;20131;-73
2023/05/24 01:01:56;;;;;;;3.00;1.13;;;21.20;67.30;;;;;;5078710;28;20065;-73
2023/05/24 01:04:24;;;;;;;1.65;0.45;;;21.20;67.30;;;;;;5082050;28;20055;-73
2023/05/24 01:07:06;;;;;;;2.35;0.50;;;21.20;67.30;;;;;;5086571;28;20074;-73
2023/05/24 01:09:38;;;;;;;2.60;0.90;;;21.20;67.30;;;;;;5079619;28;20058;-73
2023/05/24 01:12:18;;;;;;;2.42;0.43;;;21.20;67.30;;;;;;5079751;28;20048;-73
2023/05/24 01:14:53;;;;;;;3.03;1.15;;;21.20;67.30;;;;;;5082162;28;20485;-73
2023/05/24 01:17:25;;;;;;;2.92;1.23;;;21.20;67.30;;;;;;5085169;28;20485;-73
2023/05/24 01:20:00;;;;;;;2.72;0.40;;;21.20;67.30;;;;;;5076932;28;20060;-73
2023/05/24 01:22:51;;;;;;;;;;;21.20;67.30;;;;;;5082325;28;20055;-73
2023/05/24 01:25:37;;;;;;;1.90;0.73;;;21.10;67.20;;;;;;5064096;28;20022;-73
2023/05/24 01:28:08;;;;;;;3.90;1.10;;;21.10;67.20;;;;;;5084455;28;20063;-73
2023/05/24 01:30:36;;;;;;;3.80;0.77;;;21.10;67.20;;;;;;5086270;28;20139;-73
2023/05/24 01:33:03;;;;;;;2.13;0.63;;;21.20;67.30;;;;;;5078639;28;20737;-73
2023/05/24 01:35:30;;;;;;;3.97;1.23;;;21.20;67.30;;;;;;5085130;28;20056;-73
2023/05/24 01:37:57;;;;;;;2.25;0.90;;;21.10;67.20;;;;;;5079049;28;20058;-73
2023/05/24 01:40:24;;;;;;;3.97;1.08;;;21.10;67.80;;;;;;5085471;28;20052;-73
2023/05/24 01:43:04;;;;;;;2.20;0.88;;;21.10;67.20;;;;;;5081611;28;20054;-73
2023/05/24 01:45:37;;;;;;;2.50;0.52;;;21.10;67.20;;;;;;5079034;28;20055;-73
2023/05/24 01:48:17;;;;;;;4.00;1.30;;;21.10;67.20;;;;;;5081632;28;20052;-73
2023/05/24 01:50:48;;;;;;;3.38;1.23;;;21.10;67.20;;;;;;5082976;28;20052;-73
2023/05/24 01:53:19;;;;;;;5.30;1.17;;;21.10;67.20;;;;;;5080630;28;20056;-73
2023/05/24 01:55:48;;;;;;;2.47;0.88;;;21.10;67.20;;;;;;5086693;28;20405;-73
2023/05/24 01:58:17;;;;;;;3.13;0.60;;;21.10;67.20;;;;;;5083668;28;20052;-73
2023/05/24 02:00:46;;;;;;;3.45;1.05;;;21.10;67.10;;;;;;5082477;28;20048;-73
2023/05/24 02:03:15;;;;;;;2.63;1.50;;;21.10;67.10;;;;;;5074617;28;20136;-74
2023/05/24 02:05:43;;;;;;;3.08;0.75;;;21.10;67.20;;;;;;5084327;28;20044;-73
2023/05/24 02:08:11;;;;;;;2.67;0.38;;;21.10;67.10;;;;;;5087304;28;20040;-72
2023/05/24 02:10:38;;;;;;;4.03;1.20;;;21.10;67.10;;;;;;5083245;28;20044;-73
2023/05/24 02:13:06;;;;;;;2.80;0.50;;;21.10;67.10;;;;;;5085383;28;20068;-73
2023/05/24 02:15:34;;;;;;;2.83;1.10;;;21.00;67.00;;;;;;5089643;28;20048;-73
2023/05/24 02:18:02;;;;;;;3.72;1.13;;;21.00;67.00;;;;;;5088597;28;20127;-72
2023/05/24 02:20:30;;;;;;;2.90;0.60;;;21.00;67.00;;;;;;5086579;28;20485;-73
2023/05/24 02:22:58;;;;;;;2.38;0.47;;;21.00;67.00;;;;;;5086040;28;20048;-73
2023/05/24 02:25:25;;;;;;;2.17;0.40;;;21.00;67.00;;;;;;5085242;28;20044;-73
2023/05/24 02:27:52;;;;;;;2.15;0.60;;;21.00;67.00;;;;;;5083927;28;20071;-73
2023/05/24 02:30:19;;;;;;;3.67;1.35;;;21.00;67.00;;;;;;5086985;28;20063;-73
2023/05/24 02:32:46;;;;;;;2.47;0.50;;;21.00;67.00;;;;;;5087510;28;20054;-73
2023/05/24 02:35:15;;;;;;;3.95;1.33;;;21.00;67.00;;;;;;5083663;28;20516;-73
2023/05/24 02:37:42;;;;;;;2.40;1.10;;;21.00;66.90;;;;;;5084689;28;20052;-73
2023/05/24 02:40:10;;;;;;;2.80;0.90;;;21.00;67.00;;;;;;5089845;28;20044;-73
2023/05/24 02:42:37;;;;;;;3.30;1.20;;;21.00;66.90;;;;;;5084082;28;20052;-73
2023/05/24 02:45:04;;;;;;;2.70;0.88;;;21.00;67.00;;;;;;5079349;28;21571;-73
2023/05/24 02:47:31;;;;;;;3.00;1.08;;;21.00;66.90;;;;;;5087065;28;20036;-73
2023/05/24 02:49:58;;;;;;;3.60;1.08;;;21.00;66.90;;;;;;5086354;28;20056;-73
2023/05/24 02:52:26;;;;;;;2.95;0.65;;;21.00;66.90;;;;;;5082831;28;20051;-73
2023/05/24 02:54:53;;;;;;;3.15;1.08;;;21.00;67.00;;;;;;5082555;28;20146;-73
2023/05/24 02:57:21;;;;;;;5.00;1.85;;;21.10;67.00;;;;;;5082665;28;20060;-73
2023/05/24 02:59:48;;;;;;;3.13;1.00;;;21.00;66.90;;;;;;5081580;28;20090;-74
2023/05/24 03:02:16;;;;;;;2.22;0.30;;;21.00;66.90;;;;;;5087721;28;20044;-73
2023/05/24 03:04:43;;;;;;;4.00;1.30;;;21.00;66.80;;;;;;5084855;28;20135;-73
2023/05/24 03:07:10;;;;;;;2.25;0.40;;;21.00;66.90;;;;;;5085680;28;20048;-73
2023/05/24 03:09:39;;;;;;;2.33;1.00;;;21.00;66.90;;;;;;5082972;28;20045;-73
2023/05/24 03:12:06;;;;;;;3.88;1.08;;;21.00;66.90;;;;;;5087200;28;20044;-73
2023/05/24 03:14:33;;;;;;;2.45;0.32;;;21.00;66.80;;;;;;5084891;28;20052;-73
2023/05/24 03:17:01;;;;;;;1.98;0.80;;;21.00;66.80;;;;;;5088311;28;20075;-73
2023/05/24 03:19:28;;;;;;;3.30;0.40;;;20.90;66.80;;;;;;5082876;28;20047;-73
2023/05/24 03:21:55;;;;;;;2.53;0.50;;;21.00;66.80;;;;;;5084121;28;20044;-73
2023/05/24 03:24:21;;;;;;;3.05;0.25;;;21.00;66.80;;;;;;5087306;28;20051;-73
2023/05/24 03:26:50;;;;;;;3.08;1.13;;;21.00;66.80;;;;;;5086971;28;20056;-73
2023/05/24 03:29:17;;;;;;;3.65;1.20;;;21.00;66.80;;;;;;5082614;28;20338;-73
2023/05/24 03:31:44;;;;;;;2.90;1.10;;;21.00;66.80;;;;;;5088597;28;20520;-73
2023/05/24 03:34:11;;;;;;;3.80;0.80;;;20.90;66.80;;;;;;5083289;28;20563;-73
2023/05/24 03:36:38;;;;;;;2.80;1.17;;;21.00;66.80;;;;;;5081437;28;20044;-73
2023/05/24 03:39:05;;;;;;;2.40;0.40;;;20.90;66.70;;;;;;5083086;28;20055;-73
2023/05/24 03:41:32;;;;;;;2.70;0.32;;;20.90;66.70;;;;;;5085875;28;20055;-73
2023/05/24 03:44:00;;;;;;;3.13;1.05;;;20.90;66.70;;;;;;5084813;28;20044;-73
2023/05/24 03:46:27;;;;;;;4.40;1.05;;;20.90;66.70;;;;;;5085306;28;20051;-73
2023/05/24 03:48:54;;;;;;;2.72;0.40;;;20.90;66.70;;;;;;5087879;28;20058;-72
2023/05/24 03:51:23;;;;;;;2.35;0.40;;;20.90;66.70;;;;;;5086952;28;20083;-73
2023/05/24 03:53:50;;;;;;;2.17;0.50;;;20.90;66.70;;;;;;5076325;28;20052;-73
2023/05/24 03:56:17;;;;;;;2.65;0.98;;;20.90;66.70;;;;;;5088558;28;20060;-73
2023/05/24 03:58:44;;;;;;;2.15;0.60;;;20.90;66.70;;;;;;5087398;28;20044;-73
2023/05/24 04:01:12;;;;;;;2.88;1.08;;;20.90;66.70;;;;;;5083152;28;20063;-73
2023/05/24 04:03:39;;;;;;;2.17;0.47;;;20.90;66.70;;;;;;5085561;28;20501;-74
2023/05/24 04:06:06;;;;;;;2.45;1.05;;;20.90;66.70;;;;;;5083684;28;20415;-73
2023/05/24 04:08:33;;;;;;;2.55;0.30;;;20.90;66.70;;;;;;5086197;28;20052;-73
2023/05/24 04:11:00;;;;;;;2.85;0.55;;;20.90;66.70;;;;;;5081584;28;20052;-73
2023/05/24 04:13:27;;;;;;;1.98;0.30;;;20.90;66.70;;;;;;5086358;28;20040;-73
2023/05/24 04:15:54;;;;;;;2.47;0.63;;;20.90;66.70;;;;;;5086353;28;20405;-73
2023/05/24 04:18:23;;;;;;;2.55;0.50;;;20.90;66.70;;;;;;5080301;28;20043;-73
2023/05/24 04:20:50;;;;;;;3.08;1.55;;;20.90;66.60;;;;;;5086263;28;20051;-73
2023/05/24 04:23:17;;;;;;;2.05;1.10;;;20.90;66.60;;;;;;5084419;28;20048;-73
2023/05/24 04:25:44;;;;;;;2.63;0.50;;;20.90;66.70;;;;;;5081200;28;20055;-73
2023/05/24 04:28:11;;;;;;;2.63;0.40;;;20.90;66.60;;;;;;5085768;28;20043;-74
2023/05/24 04:30:38;;;;;;;2.38;0.38;;;20.90;66.60;;;;;;5085497;28;20067;-73
2023/05/24 04:33:05;;;;;;;2.42;0.65;;;20.90;66.70;;;;;;5085592;28;20055;-73
2023/05/24 04:35:34;;;;;;;3.97;0.40;;;20.90;66.60;;;;;;5081589;28;20056;-73
2023/05/24 04:38:01;;;;;;;2.33;0.40;;;20.80;66.50;;;;;;5086972;28;20040;-73
2023/05/24 04:40:28;;;;;;;2.70;0.88;;;20.80;66.60;;;;;;5084052;28;20524;-73
2023/05/24 04:42:55;;;;;;;2.47;1.02;;;20.80;66.60;;;;;;5083371;28;20510;-73
2023/05/24 04:45:22;;;;;;;2.17;0.88;;;20.80;66.60;;;;;;5081962;28;20040;-73
2023/05/24 04:47:49;;;;;;;2.03;0.82;;;20.80;66.60;;;;;;5084677;28;20048;-73
2023/05/24 04:50:16;;;;;;;2.75;0.30;;;20.80;66.60;;;;;;5087194;28;20126;-73
2023/05/24 04:52:44;;;;;;;2.47;0.22;;;20.80;66.60;;;;;;5080131;28;20043;-73
2023/05/24 04:55:11;;;;;;;2.53;0.50;;;20.90;66.60;;;;;;5083285;28;20051;-73
2023/05/24 04:57:38;;;;;;;3.40;0.55;;;20.90;66.60;;;;;;5097021;28;20048;-73
2023/05/24 05:00:06;;;;;;;3.03;1.08;;;20.90;66.70;;;;;;5073021;28;20057;-73
2023/05/24 05:02:34;;;;;;;2.35;0.45;;;20.80;66.50;;;;;;5085375;28;20053;-73
2023/05/24 05:05:01;;;;;;;2.45;0.43;;;20.80;66.50;;;;;;5085871;28;20436;-73
2023/05/24 05:07:28;;;;;;;2.05;0.43;;;20.80;66.50;;;;;;5086213;28;20515;-73
2023/05/24 05:09:56;;;;;;;3.13;0.35;;;20.90;66.60;;;;;;5078886;28;20048;-73
2023/05/24 05:12:23;;;;;;;2.60;0.85;;;20.90;66.60;;;;;;5086976;28;20056;-73
2023/05/24 05:14:53;;;;;;;2.40;0.60;;;20.80;66.60;;;;;;5085345;28;20063;-74
2023/05/24 05:17:20;;;;;;;2.05;0.95;;;20.90;66.60;;;;;;5087328;28;20424;-73
2023/05/24 05:19:47;;;;;;;1.40;0.40;;;20.80;66.50;;;;;;5082371;28;20052;-73
2023/05/24 05:22:15;;;;;;;3.00;1.10;;;20.80;66.50;;;;;;5078565;28;20064;-73
2023/05/24 05:24:42;;;;;;;2.35;0.75;;;20.80;66.50;;;;;;5083389;28;20046;-73
2023/05/24 05:27:10;;;;;;;2.88;1.17;;;20.80;66.50;;;;;;5083998;28;20048;-73
2023/05/24 05:29:37;;;;;;;2.13;0.77;;;20.80;66.50;;;;;;5086867;28;20048;-73
2023/05/24 05:32:05;;;;;;;2.13;0.40;;;20.80;66.50;;;;;;5082748;28;20067;-73
2023/05/24 05:34:32;;;;;;;3.38;1.08;;;20.80;66.50;;;;;;5078839;28;20067;-74
2023/05/24 05:36:58;;;;;;;2.13;0.90;;;20.80;66.50;;;;;;5086105;28;20489;-73
2023/05/24 05:39:25;;;;;;;3.20;0.93;;;20.80;66.50;;;;;;5083339;28;20056;-73
2023/05/24 05:41:52;;;;;;;1.90;0.35;;;20.80;66.50;;;;;;5077287;28;20135;-73
2023/05/24 05:44:21;;;;;;;3.47;1.05;;;20.80;66.50;;;;;;5083135;28;20056;-73
2023/05/24 05:46:48;;;;;;;2.55;0.88;;;20.80;66.50;;;;;;5086584;28;20413;-73
2023/05/24 05:49:17;;;;;;;3.45;1.00;;;20.80;66.50;;;;;;5087252;28;20405;-73
2023/05/24 05:51:44;;;;;;;2.90;0.50;;;20.80;66.50;;;;;;5086817;28;20109;-73
2023/05/24 05:54:15;;;;;;;3.17;0.60;;;20.90;66.50;;;;;;5086782;28;20062;-73
2023/05/24 05:56:46;;;;;;;2.53;0.50;;;20.80;66.50;;;;;;5078379;28;20056;-73
2023/05/24 05:59:16;;;;;;;2.92;0.90;;;20.90;66.50;;;;;;5085508;28;20572;-73
2023/05/24 06:01:46;;;;;;;2.38;0.45;;;20.90;66.60;;;;;;5089623;28;20054;-73
2023/05/24 06:04:13;;;;;;;2.38;0.50;;;20.80;66.50;;;;;;5090780;28;20048;-73
2023/05/24 06:06:40;;;;;;;3.33;1.23;;;20.80;66.50;;;;;;5086060;28;20052;-73
2023/05/24 06:09:07;;;;;;;3.53;1.00;;;20.90;66.50;;;;;;5083026;28;20509;-73
2023/05/24 06:11:34;;;;;;;2.53;0.77;;;20.90;66.50;;;;;;5083073;28;20064;-77
2023/05/24 06:14:01;;;;;;;2.13;0.50;;;20.90;66.60;;;;;;5091904;28;20047;-71
2023/05/24 06:16:28;;;;;;;1.42;0.30;;;20.90;66.60;;;;;;5084768;28;20054;-70
2023/05/24 06:18:57;;;;;;;2.72;0.90;;;20.90;66.60;;;;;;5081431;28;20056;-70
2023/05/24 06:21:24;;;;;;;2.67;0.30;;;20.90;66.70;;;;;;5088901;28;20044;-74
2023/05/24 06:23:51;;;;;;;4.45;0.88;;;20.90;66.70;;;;;;5080420;28;20052;-74
2023/05/24 06:26:20;;;;;;;2.75;1.38;;;20.90;66.80;;;;;;5088108;28;20050;-74
2023/05/24 06:28:47;;;;;;;2.88;1.13;;;20.90;66.80;;;;;;5088890;28;20416;-74
2023/05/24 06:31:14;;;;;;;1.67;0.38;;;20.90;66.80;;;;;;5085302;28;20056;-73
2023/05/24 06:33:40;;;;;;;2.47;1.00;;;20.90;66.80;;;;;;5084275;28;20051;-73
2023/05/24 06:36:09;;;;;;;2.83;0.52;;;20.90;66.80;;;;;;5093279;28;20047;-74
2023/05/24 06:38:36;;;;;;;2.65;0.40;;;20.90;66.80;;;;;;5089520;28;20067;-73
2023/05/24 06:41:03;;;;;;;2.30;0.30;;;20.90;66.90;;;;;;5083502;28;20048;-74
2023/05/24 06:43:30;;;;;;;2.67;0.32;;;20.90;66.90;;;;;;5089119;28;20492;-74
2023/05/24 06:45:57;;;;;;;2.15;0.63;;;20.90;66.90;;;;;;5088258;28;20470;-73
2023/05/24 06:48:25;;;;;;;2.83;0.98;;;20.90;66.90;;;;;;5083991;28;20055;-74
2023/05/24 06:50:52;;;;;;;3.50;0.55;;;20.90;66.90;;;;;;5085025;28;20591;-74
2023/05/24 06:53:21;;;;;;;2.75;0.93;;;20.90;66.90;;;;;;5090056;28;20055;-73
2023/05/24 06:55:48;;;;;;;3.08;0.77;;;20.90;66.90;;;;;;5085633;28;20056;-74
2023/05/24 06:58:16;;;;;;;1.88;0.30;;;20.90;66.90;;;;;;5088209;28;20059;-73
2023/05/24 07:00:44;;;;;;;6.72;0.45;;;20.90;66.90;;;;;;5082225;28;20053;-74
2023/05/24 07:03:13;;;;;;;2.58;0.32;;;20.90;66.90;;;;;;5086433;28;20064;-74
2023/05/24 07:05:40;;;;;;;3.05;0.65;;;20.90;66.90;;;;;;5086686;28;20502;-73
2023/05/24 07:08:08;;;;;;;2.90;0.50;;;21.00;66.90;;;;;;5089829;28;20052;-73
2023/05/24 07:10:36;;;;;;;1.85;0.80;;;20.90;66.90;;;;;;5087962;28;20048;-74
2023/05/24 07:13:03;;;;;;;2.22;0.85;;;20.90;66.90;;;;;;5085505;28;20055;-73
2023/05/24 07:15:30;;;;;;;2.47;0.43;;;21.00;66.90;;;;;;5081398;28;20044;-74
2023/05/24 07:17:57;;;;;;;2.13;0.50;;;21.00;67.00;;;;;;5086244;28;20052;-74
2023/05/24 07:20:24;;;;;;;2.33;0.60;;;21.00;66.90;;;;;;5078298;28;20131;-74
2023/05/24 07:22:51;;;;;;;2.95;0.30;;;21.00;66.90;;;;;;5087974;28;20056;-73
2023/05/24 07:25:18;;;;;;;3.03;0.45;;;21.00;66.90;;;;;;5079167;28;20039;-74
2023/05/24 07:27:47;;;;;;;2.38;0.30;;;21.00;66.80;;;;;;5087296;28;20048;-74
2023/05/24 07:30:14;;;;;;;3.65;1.00;;;21.00;66.80;;;;;;5079764;28;20052;-73
2023/05/24 07:32:41;;;;;;;3.00;1.00;;;21.00;66.80;;;;;;5087516;28;20051;-73
2023/05/24 07:35:11;;;;;;;2.97;1.13;;;21.00;66.80;;;;;;5076724;28;20055;-74
2023/05/24 07:37:38;;;;;;;3.20;1.15;;;21.00;66.70;;;;;;5087587;28;20499;-74
2023/05/24 07:40:09;;;;;;;3.08;0.40;;;21.00;66.70;;;;;;5086470;28;20058;-74
2023/05/24 07:42:37;;;;;;;3.35;0.55;;;21.00;66.70;;;;;;5086102;28;20055;-74
2023/05/24 07:45:06;;;;;;;2.58;0.63;;;21.00;66.70;;;;;;5078384;28;20040;-73
2023/05/24 07:47:33;;;;;;;2.47;0.90;;;21.00;66.70;;;;;;5084274;28;20044;-73
2023/05/24 07:50:00;;;;;;;2.75;0.43;;;21.00;66.70;;;;;;5081667;28;20048;-74
2023/05/24 07:52:27;;;;;;;2.55;0.90;;;21.00;66.70;;;;;;5087503;28;20055;-74
2023/05/24 07:54:54;;;;;;;2.55;0.40;;;21.00;66.60;;;;;;5083563;28;20052;-74
2023/05/24 07:57:21;;;;;;;4.90;1.00;;;21.00;66.60;;;;;;5086483;28;20492;-74
2023/05/24 07:59:48;;;;;;;3.38;0.65;;;21.00;67.20;;;;;;5084373;28;20052;-74
2023/05/24 08:02:16;;;;;;;3.80;0.63;;;21.10;66.70;;;;;;5084946;28;20051;-74
2023/05/24 08:04:45;;;;;;;3.25;0.60;;;21.00;66.60;;;;;;5087767;28;20534;-73
2023/05/24 08:07:13;;;;;;;2.85;0.50;;;21.00;66.50;;;;;;5083264;28;20049;-73
2023/05/24 08:09:40;;;;;;;2.47;0.50;;;21.00;66.50;;;;;;5087577;28;20040;-74
2023/05/24 08:12:08;;;;;;;2.85;1.20;;;21.00;66.50;;;;;;5086916;28;20113;-73
2023/05/24 08:14:35;;;;;;;2.50;0.52;;;21.00;66.50;;;;;;5085642;28;20044;-74
2023/05/24 08:17:02;;;;;;;2.22;0.52;;;21.10;66.50;;;;;;5084197;28;20067;-73
2023/05/24 08:19:34;;;;;;;1.95;0.88;;;21.10;66.50;;;;;;5081787;28;20064;-74
2023/05/24 08:22:03;;;;;;;3.47;0.43;;;21.10;66.40;;;;;;5082307;28;20045;-73
2023/05/24 08:24:31;;;;;;;;;;;21.10;66.40;;;;;;5085010;28;20056;-74
2023/05/24 08:26:58;;;;;;;4.15;0.80;;;21.10;66.50;;;;;;5088071;28;19927;-73
2023/05/24 08:29:25;;;;;;;2.13;0.63;;;21.10;66.40;;;;;;5087531;28;20055;-74
2023/05/24 08:31:52;;;;;;;3.60;0.57;;;21.10;66.40;;;;;;5085207;28;20070;-74
2023/05/24 08:34:19;;;;;;;2.88;0.50;;;21.10;66.40;;;;;;5083309;28;20047;-73
2023/05/24 08:36:48;;;;;;;3.00;0.55;;;21.10;66.40;;;;;;5086723;28;20076;-73
2023/05/24 08:39:15;;;;;;;3.97;1.42;;;21.10;66.40;;;;;;5083657;28;20106;-73
2023/05/24 08:41:42;;;;;;;2.72;1.20;;;21.10;66.40;;;;;;5080939;28;20488;-74
2023/05/24 08:44:10;;;;;;;4.32;1.27;;;21.10;66.30;;;;;;5087039;28;20059;-74
2023/05/24 08:46:38;;;;;;;5.22;1.20;;;21.10;66.40;;;;;;5085568;28;20055;-74
2023/05/24 08:49:06;;;;;;;2.95;1.08;;;21.10;66.30;;;;;;5082685;28;20059;-74
2023/05/24 08:51:34;;;;;;;3.05;1.10;;;21.10;66.30;;;;;;5083851;28;20059;-74
2023/05/24 08:54:03;;;;;;;2.35;0.45;;;21.10;66.30;;;;;;5085138;28;20052;-74
2023/05/24 08:56:30;;;;;;;2.78;0.47;;;21.10;66.30;;;;;;5085623;28;20097;-73
2023/05/24 08:58:57;;;;;;;3.33;1.48;;;21.10;66.20;;;;;;5080807;28;20044;-73
2023/05/24 09:01:25;;;;;;;2.92;1.10;;;21.10;66.30;;;;;;5100623;28;20063;-73
2023/05/24 09:03:54;;;;;;;4.00;1.30;;;21.10;66.20;;;;;;5084922;28;20056;-73
2023/05/24 09:06:24;;;;;;;4.13;1.17;;;21.20;66.20;;;;;;5085773;28;20060;-74
2023/05/24 09:08:52;;;;;;;4.78;1.40;;;21.20;66.20;;;;;;5086117;28;20066;-73
2023/05/24 09:11:21;;;;;;;3.60;0.60;;;21.20;66.20;;;;;;5086147;28;20496;-74
2023/05/24 09:13:49;;;;;;;3.53;1.10;;;21.20;66.20;;;;;;5085215;28;20052;-74
2023/05/24 09:16:16;;;;;;;2.78;0.68;;;21.20;66.20;;;;;;5083496;28;20856;-73
2023/05/24 09:18:43;;;;;;;3.35;0.80;;;21.20;66.20;;;;;;5082247;28;20051;-74
2023/05/24 09:21:11;;;;;;;2.83;1.00;;;21.20;66.20;;;;;;5084371;28;20048;-74
2023/05/24 09:23:38;;;;;;;3.80;1.27;;;21.20;66.20;;;;;;5077429;28;20131;-74
2023/05/24 09:26:09;;;;;;;3.53;0.60;;;21.20;66.20;;;;;;5086255;28;20500;-74
2023/05/24 09:28:38;;;;;;;1.80;0.52;;;21.20;66.10;;;;;;5086036;28;20075;-73
2023/05/24 09:31:05;;;;;;;5.22;1.08;;;21.20;66.10;;;;;;5083633;28;20062;-74
2023/05/24 09:33:33;;;;;;;4.47;1.52;;;21.20;66.10;;;;;;5086074;28;20059;-74
2023/05/24 09:36:01;;;;;;;4.13;1.60;;;21.20;66.10;;;;;;5081497;28;20052;-74
2023/05/24 09:38:28;;;;;;;3.53;0.73;;;21.20;66.00;;;;;;5086132;28;20680;-74
2023/05/24 09:41:02;;;;;;;4.03;0.60;;;21.20;66.10;;;;;;5073286;28;20044;-74
2023/05/24 09:43:30;;;;;;;2.97;1.02;;;21.20;66.00;;;;;;5081304;28;20048;-74
2023/05/24 09:46:00;;;;;;;3.72;0.40;;;21.30;66.10;;;;;;5088022;28;20113;-74
2023/05/24 09:48:27;;;;;;;3.65;1.30;;;21.20;66.00;;;;;;5077974;28;20416;-73
2023/05/24 09:51:04;;;;;;;4.38;0.95;;;21.20;66.00;;;;;;5080739;28;20048;-74
2023/05/24 09:53:33;;;;;;;3.85;1.42;;;21.20;66.00;;;;;;5079190;28;20373;-71
2023/05/24 09:56:03;;;;;;;3.72;0.80;;;21.30;66.00;;;;;;5085537;28;20044;-71
2023/05/24 09:58:31;;;;;;;3.58;1.15;;;21.20;65.90;;;;;;5086075;28;20048;-71
2023/05/24 10:01:06;;;;;;;2.90;0.68;;;21.30;65.90;;;;;;5082812;28;20209;-71
2023/05/24 10:03:33;;;;;;;4.45;0.90;;;21.30;65.70;;;;;;5085390;28;20056;-71
2023/05/24 10:06:03;;;;;;;3.05;0.70;;;21.30;65.70;;;;;;5070883;28;20055;-70
2023/05/24 10:08:32;;;;;;;3.20;1.73;;;21.30;65.70;;;;;;5084276;28;20131;-73
2023/05/24 10:10:59;;;;;;;4.22;1.02;;;21.40;65.90;;;;;;5081080;28;20063;-74
2023/05/24 10:13:27;;;;;;;4.43;0.80;;;21.30;65.90;;;;;;5084942;28;20051;-73
2023/05/24 10:15:54;;;;;;;4.43;1.58;;;21.30;65.80;;;;;;5083173;28;20058;-77
2023/05/24 10:18:22;;;;;;;5.10;1.02;;;21.40;65.90;;;;;;5085185;28;20055;-77
2023/05/24 10:20:51;;;;;;;4.15;1.27;;;21.40;65.90;;;;;;5083710;28;20056;-76
2023/05/24 10:23:21;;;;;;;2.78;0.68;;;21.40;65.80;;;;;;5083222;28;20044;-76
2023/05/24 10:25:52;;;;;;;2.88;0.90;;;21.40;65.80;;;;;;5087101;28;20044;-76
2023/05/24 10:28:22;;;;;;;4.03;1.30;;;21.40;65.80;;;;;;5084807;28;20055;-77
2023/05/24 10:31:01;;;;;;;5.60;1.90;;;21.40;65.80;;;;;;5082260;28;20437;-77
2023/05/24 10:33:31;;;;;;;4.45;1.17;;;21.50;65.80;;;;;;5077284;28;20066;-75
2023/05/24 10:35:58;;;;;;;;;;;21.50;65.80;;;;;;5086338;28;20098;-76
2023/05/24 10:38:30;;;;;;;5.55;0.70;;;21.50;65.80;;;;;;5085512;28;19927;-75
2023/05/24 10:40:57;;;;;;;3.67;0.70;;;21.50;65.70;;;;;;5085607;28;20064;-75
2023/05/24 10:43:25;;;;;;;4.07;0.75;;;21.50;65.70;;;;;;5087985;28;20504;-75
2023/05/24 10:45:53;;;;;;;3.35;0.50;;;21.50;65.70;;;;;;5087159;28;20040;-75
2023/05/24 10:48:38;;;;;;;3.75;1.38;;;21.50;65.70;;;;;;5081937;28;20048;-75
2023/05/24 10:51:35;;;;;;;4.18;0.90;;;21.60;65.70;;;;;;5086291;28;20051;-75
2023/05/24 10:54:16;;;;;;;3.58;1.50;;;21.60;65.70;;;;;;5086829;28;20056;-76
2023/05/24 10:56:45;;;;;;;3.92;1.42;;;21.60;65.70;;;;;;5082599;28;20049;-75
2023/05/24 10:59:23;;;;;;;3.20;1.00;;;21.60;65.70;;;;;;5087806;28;20080;-75
2023/05/24 11:01:59;;;;;;;5.00;0.75;;;21.60;65.60;;;;;;5087616;28;20048;-75
2023/05/24 11:04:31;;;;;;;3.40;1.52;;;21.60;65.70;;;;;;5083140;28;20425;-75
2023/05/24 11:07:08;;;;;;;4.30;1.70;;;21.70;65.70;;;;;;5087155;28;20492;-76
2023/05/24 11:09:35;;;;;;;3.03;0.68;;;21.70;65.70;;;;;;5085836;28;20508;-75
2023/05/24 11:12:06;;;;;;;2.25;0.40;;;21.70;65.70;;;;;;5085059;28;20048;-76
2023/05/24 11:14:36;;;;;;;6.15;1.55;;;21.70;65.70;;;;;;5083259;28;20055;-75
2023/05/24 11:17:04;;;;;;;3.08;1.35;;;21.70;65.70;;;;;;5085610;28;20048;-75
2023/05/24 11:19:36;;;;;;;3.67;1.48;;;21.70;65.70;;;;;;5085259;28;20075;-75
2023/05/24 11:22:06;;;;;;;4.35;1.45;;;21.70;65.80;;;;;;5084926;28;20044;-75
2023/05/24 11:24:35;;;;;;;3.95;1.40;;;21.70;65.70;;;;;;5085567;28;20056;-72
2023/05/24 11:27:03;;;;;;;4.20;2.05;;;21.70;65.70;;;;;;5086475;28;20138;-72
2023/05/24 11:29:30;;;;;;;3.67;0.52;;;21.80;65.80;;;;;;5083668;28;20515;-73
2023/05/24 11:32:03;;;;;;;4.55;1.23;;;21.80;65.80;;;;;;5084768;28;20102;-74
2023/05/24 11:34:30;;;;;;;3.30;0.98;;;21.80;65.80;;;;;;5086373;28;20461;-73
2023/05/24 11:36:59;;;;;;;3.50;1.27;;;21.80;65.80;;;;;;5089207;28;20051;-73
2023/05/24 11:39:30;;;;;;;3.58;0.60;;;21.80;65.80;;;;;;5083863;28;20062;-73
2023/05/24 11:41:57;;;;;;;2.78;0.85;;;21.70;65.70;;;;;;5083683;28;20051;-73
2023/05/24 11:44:25;;;;;;;3.22;1.50;;;21.80;65.80;;;;;;5080197;28;20056;-73
2023/05/24 11:46:58;;;;;;;2.78;0.82;;;21.80;65.80;;;;;;5085120;28;20086;-73
2023/05/24 11:49:26;;;;;;;3.45;1.08;;;21.80;65.80;;;;;;5084481;28;20051;-73
2023/05/24 11:51:55;;;;;;;4.80;1.35;;;21.90;65.90;;;;;;5087384;28;20522;-73
2023/05/24 11:54:24;;;;;;;3.08;1.27;;;21.90;65.80;;;;;;5089590;28;20074;-73
2023/05/24 11:56:52;;;;;;;3.55;0.80;;;21.90;65.90;;;;;;5087137;28;20052;-73
2023/05/24 11:59:24;;;;;;;3.80;0.50;;;21.90;65.90;;;;;;5086860;28;20054;-73
2023/05/24 12:01:57;;;;;;;3.15;1.35;;;21.90;65.80;;;;;;5086951;28;20055;-73
2023/05/24 12:04:24;;;;;;;3.83;1.25;;;22.00;65.90;;;;;;5080380;28;20420;-73
2023/05/24 12:06:52;;;;;;;3.63;0.70;;;22.00;65.90;;;;;;5086169;28;20047;-73
2023/05/24 12:09:21;;;;;;;3.20;0.73;;;22.00;65.80;;;;;;5086658;28;20048;-73
2023/05/24 12:11:50;;;;;;;2.60;1.30;;;22.00;65.80;;;;;;5088595;28;20044;-73
2023/05/24 12:14:19;;;;;;;4.28;0.73;;;22.00;65.80;;;;;;5084418;28;20056;-73
2023/05/24 12:16:47;;;;;;;3.45;1.20;;;22.00;65.80;;;;;;5088140;28;20056;-73
2023/05/24 12:19:18;;;;;;;2.85;1.02;;;22.10;65.90;;;;;;5083395;28;20161;-73
2023/05/24 12:21:48;;;;;;;3.03;1.50;;;22.10;65.90;;;;;;5087360;28;20043;-73
2023/05/24 12:24:15;;;;;;;;;;;22.10;66.00;;;;;;5088325;28;20525;-73
2023/05/24 12:26:43;;;;;;;3.13;1.25;;;22.10;66.00;;;;;;5083932;28;20364;-73
2023/05/24 12:29:13;;;;;;;1.63;0.50;;;22.10;65.90;;;;;;5080372;28;20382;-73
2023/05/24 12:31:41;;;;;;;;;;;22.10;66.00;;;;;;5083956;28;20040;-73
2023/05/24 12:34:12;;;;;;;3.63;0.70;;;22.10;66.10;;;;;;5087879;28;19920;-73
2023/05/24 12:36:41;;;;;;;3.00;0.90;;;22.10;66.60;;;;;;5086515;28;20054;-73
2023/05/24 12:39:19;;;;;;;3.50;1.02;;;22.10;66.00;;;;;;5077438;28;20084;-73
2023/05/24 12:41:50;;;;;;;2.58;0.73;;;22.10;66.10;;;;;;5085388;28;20052;-73
2023/05/24 12:44:23;;;;;;;2.60;0.80;;;22.10;66.10;;;;;;5089085;28;20047;-73
2023/05/24 12:46:52;;;;;;;3.80;1.45;;;22.10;66.20;;;;;;5082853;28;20048;-73
2023/05/24 12:49:20;;;;;;;2.78;1.20;;;22.10;66.20;;;;;;5078707;28;20047;-73
2023/05/24 12:51:47;;;;;;;2.95;1.23;;;22.10;66.20;;;;;;5088268;28;20059;-73
2023/05/24 12:54:15;;;;;;;3.03;1.42;;;22.10;66.20;;;;;;5083650;28;20049;-73